Terminal Aerodrome Forecast
Issued by NWS

Home | Current Version | Previous Version | Text Only | Print | Product List | Glossary On
Versions: 1 2 3 4 5 6 7 8 9 10 11 12 13 14 15 16 17 18
000
FTUS42 TJSJ 220500 RRA
TAFIST
TAF
TIST 220550Z 2206/2306 09015KT P6SM VCTS SCT020CB BKN040
      TEMPO 2206/2209 09014KT 4SM SHRA BKN025
     FM221400 13015G25KT P6SM VCTS SCT015CB BKN020 OVC040=

USA.gov is the U.S. government's official web portal to all federal, state and local government web resources and services.